sensor_id;sensor_type;location;lat;lon;timestamp;pressure;altitude;pressure_sealevel;temperature;humidity
66801;BME280;53703;50.326;19.122;2023-10-19T00:00:19;98095.13;;;13.18;50.28
66801;BME280;53703;50.326;19.122;2023-10-19T00:03:13;98097.27;;;13.19;50.30
66801;BME280;53703;50.326;19.122;2023-10-19T00:05:47;98085.59;;;13.18;50.36
66801;BME280;53703;50.326;19.122;2023-10-19T00:08:21;98080.13;;;13.15;50.51
66801;BME280;53703;50.326;19.122;2023-10-19T00:10:56;98074.33;;;13.21;50.14
66801;BME280;53703;50.326;19.122;2023-10-19T00:13:32;98074.72;;;13.18;50.28
66801;BME280;53703;50.326;19.122;2023-10-19T00:16:08;98070.45;;;13.20;50.28
66801;BME280;53703;50.326;19.122;2023-10-19T00:18:46;98066.10;;;13.14;50.13
66801;BME280;53703;50.326;19.122;2023-10-19T00:21:21;98064.68;;;13.14;50.17
66801;BME280;53703;50.326;19.122;2023-10-19T00:23:57;98059.40;;;13.15;50.14
66801;BME280;53703;50.326;19.122;2023-10-19T00:26:35;98051.89;;;13.13;50.09
66801;BME280;53703;50.326;19.122;2023-10-19T00:29:09;98052.48;;;13.12;50.25
66801;BME280;53703;50.326;19.122;2023-10-19T00:32:02;98049.52;;;13.17;50.26
66801;BME280;53703;50.326;19.122;2023-10-19T00:34:38;98047.16;;;13.18;50.42
66801;BME280;53703;50.326;19.122;2023-10-19T00:37:12;98041.50;;;13.18;50.40
66801;BME280;53703;50.326;19.122;2023-10-19T00:39:50;98039.08;;;13.28;50.28
66801;BME280;53703;50.326;19.122;2023-10-19T00:42:26;98029.95;;;13.23;50.39
66801;BME280;53703;50.326;19.122;2023-10-19T00:45:04;98025.80;;;13.27;50.36
66801;BME280;53703;50.326;19.122;2023-10-19T00:47:39;98027.32;;;13.27;50.30
66801;BME280;53703;50.326;19.122;2023-10-19T00:50:14;98023.68;;;13.25;50.32
66801;BME280;53703;50.326;19.122;2023-10-19T00:52:49;98024.83;;;13.22;50.32
66801;BME280;53703;50.326;19.122;2023-10-19T00:55:23;98023.23;;;13.25;50.46
66801;BME280;53703;50.326;19.122;2023-10-19T00:58:01;98018.43;;;13.23;50.42
66801;BME280;53703;50.326;19.122;2023-10-19T01:00:41;98006.73;;;13.28;50.05
66801;BME280;53703;50.326;19.122;2023-10-19T01:03:17;98002.15;;;13.20;50.38
66801;BME280;53703;50.326;19.122;2023-10-19T01:05:51;97998.61;;;13.14;50.06
66801;BME280;53703;50.326;19.122;2023-10-19T01:08:26;97997.77;;;13.14;50.04
66801;BME280;53703;50.326;19.122;2023-10-19T01:11:04;97987.17;;;13.09;49.95
66801;BME280;53703;50.326;19.122;2023-10-19T01:13:40;97982.59;;;13.09;50.03
66801;BME280;53703;50.326;19.122;2023-10-19T01:16:17;97981.02;;;13.06;49.81
66801;BME280;53703;50.326;19.122;2023-10-19T01:18:55;97971.47;;;13.04;49.96
66801;BME280;53703;50.326;19.122;2023-10-19T01:21:28;97973.23;;;13.07;49.99
66801;BME280;53703;50.326;19.122;2023-10-19T01:24:10;97965.09;;;13.03;49.97
66801;BME280;53703;50.326;19.122;2023-10-19T01:26:47;97962.09;;;13.04;50.15
66801;BME280;53703;50.326;19.122;2023-10-19T01:29:22;97960.98;;;13.07;50.10
66801;BME280;53703;50.326;19.122;2023-10-19T01:31:59;97957.11;;;13.03;50.15
66801;BME280;53703;50.326;19.122;2023-10-19T01:34:40;97952.69;;;13.10;50.10
66801;BME280;53703;50.326;19.122;2023-10-19T01:37:14;97942.12;;;13.06;49.97
66801;BME280;53703;50.326;19.122;2023-10-19T01:39:47;97933.15;;;13.05;50.01
66801;BME280;53703;50.326;19.122;2023-10-19T01:42:21;97931.71;;;13.08;50.04
66801;BME280;53703;50.326;19.122;2023-10-19T01:44:54;97926.42;;;13.07;50.16
66801;BME280;53703;50.326;19.122;2023-10-19T01:47:27;97926.52;;;13.10;49.96
66801;BME280;53703;50.326;19.122;2023-10-19T01:50:01;97926.36;;;13.09;50.16
66801;BME280;53703;50.326;19.122;2023-10-19T01:52:37;97922.98;;;13.07;50.07
66801;BME280;53703;50.326;19.122;2023-10-19T01:55:12;97923.20;;;13.07;50.24
66801;BME280;53703;50.326;19.122;2023-10-19T01:57:46;97916.37;;;13.12;50.48
66801;BME280;53703;50.326;19.122;2023-10-19T02:00:20;97911.34;;;13.12;50.58
66801;BME280;53703;50.326;19.122;2023-10-19T02:02:55;97909.67;;;13.16;50.53
66801;BME280;53703;50.326;19.122;2023-10-19T02:05:31;97905.31;;;13.19;50.52
66801;BME280;53703;50.326;19.122;2023-10-19T02:08:11;97901.38;;;13.18;50.29
66801;BME280;53703;50.326;19.122;2023-10-19T02:10:48;97898.42;;;13.19;50.45
66801;BME280;53703;50.326;19.122;2023-10-19T02:13:21;97901.71;;;13.14;50.63
66801;BME280;53703;50.326;19.122;2023-10-19T02:15:55;97894.33;;;13.16;50.46
66801;BME280;53703;50.326;19.122;2023-10-19T02:18:29;97894.90;;;13.12;50.36
66801;BME280;53703;50.326;19.122;2023-10-19T02:21:02;97885.65;;;13.14;50.23
66801;BME280;53703;50.326;19.122;2023-10-19T02:23:39;97884.20;;;13.15;50.42
66801;BME280;53703;50.326;19.122;2023-10-19T02:26:13;97880.73;;;13.12;50.36
66801;BME280;53703;50.326;19.122;2023-10-19T02:28:47;97875.52;;;13.15;50.20
66801;BME280;53703;50.326;19.122;2023-10-19T02:31:23;97871.58;;;13.06;50.35
66801;BME280;53703;50.326;19.122;2023-10-19T02:33:58;97866.72;;;13.06;50.15
66801;BME280;53703;50.326;19.122;2023-10-19T02:36:33;97859.52;;;12.99;50.30
66801;BME280;53703;50.326;19.122;2023-10-19T02:39:08;97853.03;;;12.97;50.20
66801;BME280;53703;50.326;19.122;2023-10-19T02:41:43;97854.73;;;12.98;50.08
66801;BME280;53703;50.326;19.122;2023-10-19T02:44:19;97849.25;;;12.98;50.02
66801;BME280;53703;50.326;19.122;2023-10-19T02:46:55;97846.65;;;12.96;50.17
66801;BME280;53703;50.326;19.122;2023-10-19T02:49:32;97845.49;;;12.98;50.37
66801;BME280;53703;50.326;19.122;2023-10-19T02:52:10;97843.86;;;12.96;50.19
66801;BME280;53703;50.326;19.122;2023-10-19T02:54:48;97836.39;;;12.95;50.20
66801;BME280;53703;50.326;19.122;2023-10-19T02:57:22;97833.20;;;12.92;50.44
66801;BME280;53703;50.326;19.122;2023-10-19T02:59:56;97825.58;;;13.00;50.29
66801;BME280;53703;50.326;19.122;2023-10-19T03:02:31;97822.67;;;12.97;50.26
66801;BME280;53703;50.326;19.122;2023-10-19T03:05:06;97816.09;;;12.95;50.32
66801;BME280;53703;50.326;19.122;2023-10-19T03:07:46;97806.07;;;12.92;50.26
66801;BME280;53703;50.326;19.122;2023-10-19T03:10:21;97802.83;;;12.94;50.25
66801;BME280;53703;50.326;19.122;2023-10-19T03:13:06;97795.45;;;12.91;50.37
66801;BME280;53703;50.326;19.122;2023-10-19T03:15:40;97789.61;;;12.89;50.38
66801;BME280;53703;50.326;19.122;2023-10-19T03:18:15;97785.11;;;12.88;50.25
66801;BME280;53703;50.326;19.122;2023-10-19T03:20:50;97786.95;;;12.87;50.66
66801;BME280;53703;50.326;19.122;2023-10-19T03:23:24;97779.84;;;12.96;50.65
66801;BME280;53703;50.326;19.122;2023-10-19T03:26:00;97773.34;;;13.02;50.64
66801;BME280;53703;50.326;19.122;2023-10-19T03:29:00;97763.09;;;13.05;50.68
66801;BME280;53703;50.326;19.122;2023-10-19T03:31:39;97760.02;;;13.05;50.63
66801;BME280;53703;50.326;19.122;2023-10-19T03:34:16;97761.65;;;13.00;50.85
66801;BME280;53703;50.326;19.122;2023-10-19T03:36:50;97758.70;;;12.96;50.83
66801;BME280;53703;50.326;19.122;2023-10-19T03:39:24;97755.80;;;12.98;50.87
66801;BME280;53703;50.326;19.122;2023-10-19T03:42:00;97751.94;;;12.99;50.87
66801;BME280;53703;50.326;19.122;2023-10-19T03:44:34;97749.66;;;13.04;50.93
66801;BME280;53703;50.326;19.122;2023-10-19T03:47:17;97747.39;;;13.04;50.86
66801;BME280;53703;50.326;19.122;2023-10-19T03:49:53;97746.70;;;13.00;51.11
66801;BME280;53703;50.326;19.122;2023-10-19T03:52:27;97744.43;;;13.02;50.94
66801;BME280;53703;50.326;19.122;2023-10-19T03:55:03;97740.17;;;12.99;51.06
66801;BME280;53703;50.326;19.122;2023-10-19T03:57:38;97735.20;;;12.97;51.17
66801;BME280;53703;50.326;19.122;2023-10-19T04:00:16;97731.48;;;12.98;51.01
66801;BME280;53703;50.326;19.122;2023-10-19T04:02:52;97726.71;;;12.96;51.03
66801;BME280;53703;50.326;19.122;2023-10-19T04:05:28;97720.20;;;12.96;51.06
66801;BME280;53703;50.326;19.122;2023-10-19T04:08:04;97719.48;;;13.00;50.94
66801;BME280;53703;50.326;19.122;2023-10-19T04:10:45;97713.63;;;12.98;50.96
66801;BME280;53703;50.326;19.122;2023-10-19T04:13:42;97704.41;;;12.92;51.25
66801;BME280;53703;50.326;19.122;2023-10-19T04:16:18;97695.88;;;12.96;51.14
66801;BME280;53703;50.326;19.122;2023-10-19T04:18:51;97694.69;;;12.98;51.12
66801;BME280;53703;50.326;19.122;2023-10-19T04:21:26;97697.19;;;13.00;51.09
66801;BME280;53703;50.326;19.122;2023-10-19T04:24:01;97702.07;;;12.98;51.19
66801;BME280;53703;50.326;19.122;2023-10-19T04:26:35;97700.27;;;12.98;51.30
66801;BME280;53703;50.326;19.122;2023-10-19T04:29:10;97693.13;;;12.98;51.22
66801;BME280;53703;50.326;19.122;2023-10-19T04:31:45;97689.33;;;13.01;51.29
66801;BME280;53703;50.326;19.122;2023-10-19T04:34:23;97678.55;;;12.97;51.42
66801;BME280;53703;50.326;19.122;2023-10-19T04:36:57;97670.02;;;13.00;51.35
66801;BME280;53703;50.326;19.122;2023-10-19T04:39:30;97666.30;;;12.98;51.56
66801;BME280;53703;50.326;19.122;2023-10-19T04:42:04;97659.25;;;13.00;51.43
66801;BME280;53703;50.326;19.122;2023-10-19T04:44:38;97657.95;;;12.99;51.61
66801;BME280;53703;50.326;19.122;2023-10-19T04:47:12;97658.63;;;12.98;51.78
66801;BME280;53703;50.326;19.122;2023-10-19T04:49:46;97653.38;;;13.00;51.98
66801;BME280;53703;50.326;19.122;2023-10-19T04:52:19;97651.16;;;13.12;51.77
66801;BME280;53703;50.326;19.122;2023-10-19T04:54:53;97652.27;;;13.08;51.81
66801;BME280;53703;50.326;19.122;2023-10-19T04:57:27;97650.38;;;13.10;51.77
66801;BME280;53703;50.326;19.122;2023-10-19T05:00:00;97652.99;;;13.06;51.88
66801;BME280;53703;50.326;19.122;2023-10-19T05:02:35;97649.90;;;13.12;51.87
66801;BME280;53703;50.326;19.122;2023-10-19T05:05:09;97646.15;;;13.05;52.04
66801;BME280;53703;50.326;19.122;2023-10-19T05:07:43;97644.80;;;13.13;51.86
66801;BME280;53703;50.326;19.122;2023-10-19T05:10:17;97641.27;;;13.13;52.01
66801;BME280;53703;50.326;19.122;2023-10-19T05:12:52;97635.93;;;13.08;52.11
66801;BME280;53703;50.326;19.122;2023-10-19T05:15:27;97635.48;;;13.08;52.17
66801;BME280;53703;50.326;19.122;2023-10-19T05:18:01;97636.15;;;13.13;52.07
66801;BME280;53703;50.326;19.122;2023-10-19T05:20:37;97633.94;;;13.12;52.17
66801;BME280;53703;50.326;19.122;2023-10-19T05:23:13;97632.33;;;13.13;52.06
66801;BME280;53703;50.326;19.122;2023-10-19T05:25:47;97623.55;;;13.08;52.21
66801;BME280;53703;50.326;19.122;2023-10-19T05:28:20;97624.93;;;13.09;52.17
66801;BME280;53703;50.326;19.122;2023-10-19T05:30:54;97626.31;;;13.09;52.14
66801;BME280;53703;50.326;19.122;2023-10-19T05:33:29;97630.46;;;13.01;52.16
66801;BME280;53703;50.326;19.122;2023-10-19T05:36:03;97630.92;;;13.06;52.20
66801;BME280;53703;50.326;19.122;2023-10-19T05:38:37;97626.45;;;13.08;52.18
66801;BME280;53703;50.326;19.122;2023-10-19T05:41:11;97629.81;;;13.03;52.17
66801;BME280;53703;50.326;19.122;2023-10-19T05:43:44;97631.45;;;13.02;52.33
66801;BME280;53703;50.326;19.122;2023-10-19T05:46:19;97631.70;;;13.03;52.24
66801;BME280;53703;50.326;19.122;2023-10-19T05:48:54;97631.44;;;13.09;52.06
66801;BME280;53703;50.326;19.122;2023-10-19T05:51:28;97631.55;;;13.08;52.21
66801;BME280;53703;50.326;19.122;2023-10-19T05:54:02;97629.94;;;13.07;52.25
66801;BME280;53703;50.326;19.122;2023-10-19T05:56:36;97625.11;;;13.10;52.25
66801;BME280;53703;50.326;19.122;2023-10-19T05:59:10;97624.77;;;13.11;52.18
66801;BME280;53703;50.326;19.122;2023-10-19T06:01:44;97619.14;;;13.04;52.46
66801;BME280;53703;50.326;19.122;2023-10-19T06:04:19;97625.91;;;13.10;52.38
66801;BME280;53703;50.326;19.122;2023-10-19T06:06:53;97626.23;;;13.11;52.41
66801;BME280;53703;50.326;19.122;2023-10-19T06:09:27;97623.10;;;13.13;52.25
66801;BME280;53703;50.326;19.122;2023-10-19T06:12:02;97612.80;;;13.12;52.39
66801;BME280;53703;50.326;19.122;2023-10-19T06:14:36;97609.27;;;13.09;52.63
66801;BME280;53703;50.326;19.122;2023-10-19T06:17:09;97604.43;;;13.17;52.61
66801;BME280;53703;50.326;19.122;2023-10-19T06:19:43;97596.39;;;13.17;52.48
66801;BME280;53703;50.326;19.122;2023-10-19T06:22:18;97593.56;;;13.20;52.50
66801;BME280;53703;50.326;19.122;2023-10-19T06:24:51;97598.44;;;13.18;52.53
66801;BME280;53703;50.326;19.122;2023-10-19T06:27:25;97592.16;;;13.10;52.86
66801;BME280;53703;50.326;19.122;2023-10-19T06:29:59;97585.77;;;13.20;52.55
66801;BME280;53703;50.326;19.122;2023-10-19T06:32:32;97583.14;;;13.24;52.51
66801;BME280;53703;50.326;19.122;2023-10-19T06:35:07;97582.86;;;13.31;52.64
66801;BME280;53703;50.326;19.122;2023-10-19T06:37:40;97579.77;;;13.37;52.60
66801;BME280;53703;50.326;19.122;2023-10-19T06:40:16;97577.80;;;13.46;52.48
66801;BME280;53703;50.326;19.122;2023-10-19T06:42:50;97574.48;;;13.44;52.66
66801;BME280;53703;50.326;19.122;2023-10-19T06:45:24;97570.77;;;13.32;52.81
66801;BME280;53703;50.326;19.122;2023-10-19T06:47:59;97559.81;;;13.29;53.54
66801;BME280;53703;50.326;19.122;2023-10-19T06:50:33;97552.80;;;13.28;54.19
66801;BME280;53703;50.326;19.122;2023-10-19T06:53:08;97555.30;;;13.28;54.15
66801;BME280;53703;50.326;19.122;2023-10-19T06:55:42;97546.47;;;13.31;54.54
66801;BME280;53703;50.326;19.122;2023-10-19T06:58:16;97542.61;;;13.30;55.02
66801;BME280;53703;50.326;19.122;2023-10-19T07:00:52;97544.80;;;13.22;54.04
66801;BME280;53703;50.326;19.122;2023-10-19T07:03:32;97539.30;;;13.21;54.74
66801;BME280;53703;50.326;19.122;2023-10-19T07:06:06;97537.05;;;13.17;54.79
66801;BME280;53703;50.326;19.122;2023-10-19T07:08:45;97526.45;;;13.13;54.73
66801;BME280;53703;50.326;19.122;2023-10-19T07:11:19;97523.12;;;13.22;54.38
66801;BME280;53703;50.326;19.122;2023-10-19T07:13:53;97511.93;;;13.20;54.22
66801;BME280;53703;50.326;19.122;2023-10-19T07:16:26;97511.61;;;13.19;54.12
66801;BME280;53703;50.326;19.122;2023-10-19T07:19:00;97513.86;;;13.24;53.97
66801;BME280;53703;50.326;19.122;2023-10-19T07:21:33;97526.16;;;13.24;53.52
66801;BME280;53703;50.326;19.122;2023-10-19T07:24:09;97528.45;;;13.13;54.26
66801;BME280;53703;50.326;19.122;2023-10-19T07:26:43;97524.36;;;13.11;54.15
66801;BME280;53703;50.326;19.122;2023-10-19T07:29:25;97509.42;;;13.10;54.22
66801;BME280;53703;50.326;19.122;2023-10-19T07:31:59;97501.39;;;13.37;54.00
66801;BME280;53703;50.326;19.122;2023-10-19T07:34:36;97495.52;;;13.42;53.23
66801;BME280;53703;50.326;19.122;2023-10-19T07:37:09;97499.13;;;13.42;53.74
66801;BME280;53703;50.326;19.122;2023-10-19T07:39:49;97496.07;;;13.21;54.25
66801;BME280;53703;50.326;19.122;2023-10-19T07:42:24;97496.86;;;13.32;54.12
66801;BME280;53703;50.326;19.122;2023-10-19T07:44:58;97494.02;;;13.25;54.10
66801;BME280;53703;50.326;19.122;2023-10-19T07:47:33;97490.13;;;13.24;54.20
66801;BME280;53703;50.326;19.122;2023-10-19T07:50:08;97491.24;;;13.40;54.02
66801;BME280;53703;50.326;19.122;2023-10-19T07:52:44;97494.23;;;13.35;53.99
66801;BME280;53703;50.326;19.122;2023-10-19T07:55:20;97493.71;;;12.46;55.41
66801;BME280;53703;50.326;19.122;2023-10-19T07:57:55;97488.75;;;13.23;54.61
66801;BME280;53703;50.326;19.122;2023-10-19T08:00:32;97485.10;;;13.31;54.71
66801;BME280;53703;50.326;19.122;2023-10-19T08:03:08;97473.42;;;13.49;54.49
66801;BME280;53703;50.326;19.122;2023-10-19T08:05:44;97472.55;;;13.38;55.48
66801;BME280;53703;50.326;19.122;2023-10-19T08:08:17;97468.91;;;13.45;55.71
66801;BME280;53703;50.326;19.122;2023-10-19T08:10:51;97470.40;;;13.35;57.20
66801;BME280;53703;50.326;19.122;2023-10-19T08:13:25;97471.17;;;13.28;57.12
66801;BME280;53703;50.326;19.122;2023-10-19T08:16:04;97468.55;;;13.30;56.53
66801;BME280;53703;50.326;19.122;2023-10-19T08:18:39;97460.16;;;13.36;56.00
66801;BME280;53703;50.326;19.122;2023-10-19T08:21:13;97460.90;;;13.42;55.54
66801;BME280;53703;50.326;19.122;2023-10-19T08:23:46;97461.70;;;13.40;55.13
66801;BME280;53703;50.326;19.122;2023-10-19T08:26:20;97452.73;;;13.41;55.08
66801;BME280;53703;50.326;19.122;2023-10-19T08:28:54;97437.92;;;13.40;55.02
66801;BME280;53703;50.326;19.122;2023-10-19T08:31:28;97436.00;;;13.53;55.03
66801;BME280;53703;50.326;19.122;2023-10-19T08:34:01;97440.80;;;13.50;54.81
66801;BME280;53703;50.326;19.122;2023-10-19T08:36:35;97433.86;;;13.46;54.85
66801;BME280;53703;50.326;19.122;2023-10-19T08:39:11;97438.82;;;13.47;54.84
66801;BME280;53703;50.326;19.122;2023-10-19T08:41:45;97436.78;;;13.36;54.97
66801;BME280;53703;50.326;19.122;2023-10-19T08:44:23;97436.27;;;13.48;54.86
66801;BME280;53703;50.326;19.122;2023-10-19T08:46:57;97440.86;;;13.55;54.63
66801;BME280;53703;50.326;19.122;2023-10-19T08:49:31;97443.52;;;13.58;54.27
66801;BME280;53703;50.326;19.122;2023-10-19T08:52:06;97442.29;;;13.48;54.56
66801;BME280;53703;50.326;19.122;2023-10-19T08:54:40;97438.96;;;13.42;55.22
66801;BME280;53703;50.326;19.122;2023-10-19T08:57:14;97433.52;;;13.40;55.53
66801;BME280;53703;50.326;19.122;2023-10-19T08:59:47;97425.33;;;13.41;56.07
66801;BME280;53703;50.326;19.122;2023-10-19T09:02:21;97424.75;;;13.45;56.44
66801;BME280;53703;50.326;19.122;2023-10-19T09:04:54;97420.23;;;13.46;56.75
66801;BME280;53703;50.326;19.122;2023-10-19T09:07:32;97408.27;;;13.42;57.97
66801;BME280;53703;50.326;19.122;2023-10-19T09:10:08;97404.17;;;13.35;58.72
66801;BME280;53703;50.326;19.122;2023-10-19T09:13:00;97394.78;;;13.41;59.55
66801;BME280;53703;50.326;19.122;2023-10-19T09:15:35;97396.77;;;13.44;60.18
66801;BME280;53703;50.326;19.122;2023-10-19T09:18:19;97390.96;;;13.55;59.56
66801;BME280;53703;50.326;19.122;2023-10-19T09:20:54;97393.47;;;13.47;60.91
66801;BME280;53703;50.326;19.122;2023-10-19T09:23:36;97395.48;;;13.48;61.41
66801;BME280;53703;50.326;19.122;2023-10-19T09:26:09;97389.02;;;13.50;61.90
66801;BME280;53703;50.326;19.122;2023-10-19T09:28:48;97375.23;;;13.49;61.84
66801;BME280;53703;50.326;19.122;2023-10-19T09:31:22;97364.30;;;13.63;61.47
66801;BME280;53703;50.326;19.122;2023-10-19T09:33:57;97362.30;;;13.64;62.62
66801;BME280;53703;50.326;19.122;2023-10-19T09:36:32;97371.14;;;13.54;62.22
66801;BME280;53703;50.326;19.122;2023-10-19T09:39:09;97380.30;;;13.51;61.98
66801;BME280;53703;50.326;19.122;2023-10-19T09:41:45;97385.71;;;13.51;61.89
66801;BME280;53703;50.326;19.122;2023-10-19T09:44:22;97386.98;;;13.56;61.85
66801;BME280;53703;50.326;19.122;2023-10-19T09:46:58;97384.82;;;13.84;60.08
66801;BME280;53703;50.326;19.122;2023-10-19T09:49:35;97388.59;;;13.60;61.75
66801;BME280;53703;50.326;19.122;2023-10-19T09:52:10;97384.89;;;13.53;62.07
66801;BME280;53703;50.326;19.122;2023-10-19T09:54:52;97383.60;;;13.52;62.17
66801;BME280;53703;50.326;19.122;2023-10-19T09:57:34;97378.11;;;13.54;61.98
66801;BME280;53703;50.326;19.122;2023-10-19T10:00:12;97378.73;;;13.54;61.95
66801;BME280;53703;50.326;19.122;2023-10-19T10:02:46;97373.29;;;13.68;61.75
66801;BME280;53703;50.326;19.122;2023-10-19T10:05:51;97372.73;;;13.89;60.02
66801;BME280;53703;50.326;19.122;2023-10-19T10:08:36;97365.23;;;13.69;59.68
66801;BME280;53703;50.326;19.122;2023-10-19T10:11:25;97363.18;;;13.62;60.35
66801;BME280;53703;50.326;19.122;2023-10-19T10:14:00;97359.40;;;13.67;63.28
66801;BME280;53703;50.326;19.122;2023-10-19T10:16:36;97349.74;;;13.69;64.23
66801;BME280;53703;50.326;19.122;2023-10-19T10:19:11;97345.47;;;13.87;62.44
66801;BME280;53703;50.326;19.122;2023-10-19T10:22:09;97337.80;;;13.90;62.66
66801;BME280;53703;50.326;19.122;2023-10-19T10:24:54;97333.83;;;14.21;64.46
66801;BME280;53703;50.326;19.122;2023-10-19T10:27:29;97327.51;;;14.16;66.61
66801;BME280;53703;50.326;19.122;2023-10-19T10:30:06;97316.86;;;13.99;64.67
66801;BME280;53703;50.326;19.122;2023-10-19T10:32:51;97310.83;;;13.86;63.46
66801;BME280;53703;50.326;19.122;2023-10-19T10:35:57;97314.73;;;13.82;63.05
66801;BME280;53703;50.326;19.122;2023-10-19T10:38:34;97305.11;;;13.79;64.14
66801;BME280;53703;50.326;19.122;2023-10-19T10:41:09;97302.39;;;13.84;63.55
66801;BME280;53703;50.326;19.122;2023-10-19T10:43:54;97296.27;;;13.93;62.41
66801;BME280;53703;50.326;19.122;2023-10-19T10:46:29;97286.42;;;13.81;64.30
66801;BME280;53703;50.326;19.122;2023-10-19T10:49:09;97280.81;;;13.76;64.25
66801;BME280;53703;50.326;19.122;2023-10-19T10:51:43;97275.70;;;13.82;63.64
66801;BME280;53703;50.326;19.122;2023-10-19T10:54:22;97275.48;;;13.79;63.42
66801;BME280;53703;50.326;19.122;2023-10-19T10:56:55;97266.30;;;13.89;62.50
66801;BME280;53703;50.326;19.122;2023-10-19T10:59:29;97256.71;;;13.80;63.15
66801;BME280;53703;50.326;19.122;2023-10-19T11:02:18;97257.91;;;13.81;62.43
66801;BME280;53703;50.326;19.122;2023-10-19T11:04:53;97254.52;;;13.84;62.68
66801;BME280;53703;50.326;19.122;2023-10-19T11:07:28;97249.79;;;13.83;63.01
66801;BME280;53703;50.326;19.122;2023-10-19T11:10:02;97244.00;;;13.80;63.08
66801;BME280;53703;50.326;19.122;2023-10-19T11:12:37;97235.50;;;13.92;62.83
66801;BME280;53703;50.326;19.122;2023-10-19T11:15:11;97226.91;;;14.18;61.64
66801;BME280;53703;50.326;19.122;2023-10-19T11:17:54;97232.61;;;13.92;64.54
66801;BME280;53703;50.326;19.122;2023-10-19T11:20:28;97233.63;;;13.89;64.61
66801;BME280;53703;50.326;19.122;2023-10-19T11:23:03;97227.83;;;13.89;65.16
66801;BME280;53703;50.326;19.122;2023-10-19T11:25:38;97226.92;;;13.87;65.30
66801;BME280;53703;50.326;19.122;2023-10-19T11:28:19;97224.29;;;13.88;65.28
66801;BME280;53703;50.326;19.122;2023-10-19T11:30:53;97219.46;;;13.90;65.18
66801;BME280;53703;50.326;19.122;2023-10-19T11:33:27;97220.58;;;13.87;63.90
66801;BME280;53703;50.326;19.122;2023-10-19T11:36:03;97215.73;;;13.84;64.12
66801;BME280;53703;50.326;19.122;2023-10-19T11:38:37;97213.09;;;14.14;62.41
66801;BME280;53703;50.326;19.122;2023-10-19T11:41:11;97216.98;;;13.94;63.86
66801;BME280;53703;50.326;19.122;2023-10-19T11:43:47;97226.41;;;13.88;64.55
66801;BME280;53703;50.326;19.122;2023-10-19T11:46:21;97227.61;;;13.86;64.94
66801;BME280;53703;50.326;19.122;2023-10-19T11:48:57;97226.19;;;13.99;63.71
66801;BME280;53703;50.326;19.122;2023-10-19T11:52:47;97222.58;;;14.28;62.32
66801;BME280;53703;50.326;19.122;2023-10-19T11:55:21;97226.18;;;14.28;61.17
66801;BME280;53703;50.326;19.122;2023-10-19T11:57:57;97224.69;;;14.32;61.77
66801;BME280;53703;50.326;19.122;2023-10-19T12:00:30;97226.04;;;14.25;60.88
66801;BME280;53703;50.326;19.122;2023-10-19T12:03:10;97223.53;;;14.40;61.61
66801;BME280;53703;50.326;19.122;2023-10-19T12:05:44;97220.80;;;14.32;63.58
66801;BME280;53703;50.326;19.122;2023-10-19T12:08:18;97214.63;;;14.30;63.95
66801;BME280;53703;50.326;19.122;2023-10-19T12:10:52;97212.09;;;14.28;64.14
66801;BME280;53703;50.326;19.122;2023-10-19T12:13:25;97206.50;;;14.28;64.34
66801;BME280;53703;50.326;19.122;2023-10-19T12:16:00;97200.53;;;14.27;64.09
66801;BME280;53703;50.326;19.122;2023-10-19T12:18:37;97199.33;;;14.26;63.79
66801;BME280;53703;50.326;19.122;2023-10-19T12:21:11;97194.63;;;14.26;63.56
66801;BME280;53703;50.326;19.122;2023-10-19T12:23:46;97195.44;;;14.28;63.05
66801;BME280;53703;50.326;19.122;2023-10-19T12:26:23;97191.41;;;14.33;62.14
66801;BME280;53703;50.326;19.122;2023-10-19T12:28:57;97188.23;;;14.31;62.35
66801;BME280;53703;50.326;19.122;2023-10-19T12:31:31;97188.48;;;14.36;62.27
66801;BME280;53703;50.326;19.122;2023-10-19T12:34:06;97183.98;;;14.35;62.97
66801;BME280;53703;50.326;19.122;2023-10-19T12:36:40;97180.87;;;14.32;62.89
66801;BME280;53703;50.326;19.122;2023-10-19T12:39:17;97180.50;;;14.33;62.58
66801;BME280;53703;50.326;19.122;2023-10-19T12:42:04;97175.57;;;14.33;62.16
66801;BME280;53703;50.326;19.122;2023-10-19T12:44:39;97174.66;;;14.35;62.02
66801;BME280;53703;50.326;19.122;2023-10-19T12:47:16;97169.25;;;14.35;61.80
66801;BME280;53703;50.326;19.122;2023-10-19T12:49:50;97159.42;;;14.33;61.76
66801;BME280;53703;50.326;19.122;2023-10-19T12:52:27;97156.98;;;14.32;61.63
66801;BME280;53703;50.326;19.122;2023-10-19T12:55:00;97155.40;;;14.33;61.51
66801;BME280;53703;50.326;19.122;2023-10-19T12:57:37;97144.83;;;14.33;61.35
66801;BME280;53703;50.326;19.122;2023-10-19T13:00:14;97145.18;;;14.35;61.26
66801;BME280;53703;50.326;19.122;2023-10-19T13:03:06;97141.57;;;14.35;61.18
66801;BME280;53703;50.326;19.122;2023-10-19T13:05:41;97145.43;;;14.36;61.09
66801;BME280;53703;50.326;19.122;2023-10-19T13:08:16;97138.58;;;14.34;61.19
66801;BME280;53703;50.326;19.122;2023-10-19T13:10:53;97140.48;;;14.35;61.05
66801;BME280;53703;50.326;19.122;2023-10-19T13:13:43;97138.02;;;14.34;60.95
66801;BME280;53703;50.326;19.122;2023-10-19T13:16:18;97136.25;;;14.36;60.75
66801;BME280;53703;50.326;19.122;2023-10-19T13:18:51;97132.59;;;14.37;60.70
66801;BME280;53703;50.326;19.122;2023-10-19T13:21:25;97127.65;;;14.37;60.64
66801;BME280;53703;50.326;19.122;2023-10-19T13:24:00;97120.11;;;14.36;60.59
66801;BME280;53703;50.326;19.122;2023-10-19T13:26:35;97116.11;;;14.36;60.57
66801;BME280;53703;50.326;19.122;2023-10-19T13:29:13;97115.10;;;14.36;60.43
66801;BME280;53703;50.326;19.122;2023-10-19T13:31:47;97108.11;;;14.37;60.38
66801;BME280;53703;50.326;19.122;2023-10-19T13:34:22;97103.42;;;14.37;60.38
66801;BME280;53703;50.326;19.122;2023-10-19T13:36:56;97099.02;;;14.36;60.26